createdAt,value
2018-05-17T00:00:40.984Z,4.80
2018-05-17T00:01:40.978Z,5.00
2018-05-17T00:02:40.971Z,5.00
2018-05-17T00:03:40.961Z,4.60
2018-05-17T00:04:40.956Z,5.00
2018-05-17T00:05:40.947Z,4.80
2018-05-17T00:06:40.940Z,4.50
2018-05-17T00:07:40.933Z,4.50
2018-05-17T00:08:40.927Z,5.70
2018-05-17T00:09:40.918Z,5.30
2018-05-17T00:10:40.908Z,4.40
2018-05-17T00:11:40.901Z,4.60
2018-05-17T00:12:40.897Z,4.60
2018-05-17T00:13:40.894Z,5.30
2018-05-17T00:14:40.881Z,4.60
2018-05-17T00:15:40.879Z,4.30
2018-05-17T00:16:40.879Z,5.00
2018-05-17T00:17:40.861Z,4.90
2018-05-17T00:18:40.866Z,4.90
2018-05-17T00:19:40.876Z,4.10
2018-05-17T00:20:40.845Z,4.50
2018-05-17T00:21:40.835Z,4.50
2018-05-17T00:22:40.828Z,5.20
2018-05-17T00:23:40.818Z,4.30
2018-05-17T00:24:40.815Z,4.60
2018-05-17T00:25:40.802Z,4.50
2018-05-17T00:26:40.801Z,4.10
2018-05-17T00:27:40.788Z,4.90
2018-05-17T00:28:40.784Z,4.20
2018-05-17T00:29:40.771Z,4.90
2018-05-17T00:30:40.767Z,5.00
2018-05-17T00:31:40.755Z,4.80
2018-05-17T00:32:40.750Z,5.10
2018-05-17T00:33:40.742Z,4.70
2018-05-17T00:34:40.740Z,4.60
2018-05-17T00:35:40.748Z,5.00
2018-05-17T00:36:40.725Z,4.10
2018-05-17T00:37:40.713Z,4.60
2018-05-17T00:38:40.708Z,5.40
2018-05-17T00:39:40.702Z,4.60
2018-05-17T00:40:40.691Z,4.20
2018-05-17T00:41:40.688Z,4.80
2018-05-17T00:42:40.684Z,5.20
2018-05-17T00:43:40.679Z,5.10
2018-05-17T00:44:40.662Z,4.50
2018-05-17T00:45:40.665Z,4.60
2018-05-17T00:46:40.649Z,4.80
2018-05-17T00:47:40.645Z,4.00
2018-05-17T00:48:40.636Z,5.20
2018-05-17T00:49:40.630Z,4.30
2018-05-17T00:50:40.628Z,4.20
2018-05-17T00:51:40.614Z,5.10
2018-05-17T00:52:40.605Z,4.40
2018-05-17T00:53:40.600Z,4.40
2018-05-17T00:54:40.617Z,5.30
2018-05-17T00:55:40.586Z,4.50
2018-05-17T00:56:40.579Z,4.80
2018-05-17T00:57:40.570Z,5.40
2018-05-17T00:58:40.562Z,4.50
2018-05-17T00:59:40.554Z,4.60
2018-05-17T01:00:40.552Z,4.50
2018-05-17T01:01:40.538Z,4.40
2018-05-17T01:02:40.530Z,4.70
2018-05-17T01:03:40.604Z,4.20
2018-05-17T01:04:40.528Z,4.70
2018-05-17T01:05:40.510Z,5.10
2018-05-17T01:06:40.507Z,4.50
2018-05-17T01:07:40.535Z,5.00
2018-05-17T01:08:40.488Z,5.20
2018-05-17T01:09:40.486Z,5.20
2018-05-17T01:10:40.474Z,4.70
2018-05-17T01:11:40.466Z,5.10
2018-05-17T01:12:40.464Z,4.60
2018-05-17T01:13:40.453Z,4.90
2018-05-17T01:14:40.442Z,5.20
2018-05-17T01:15:40.435Z,5.10
2018-05-17T01:16:40.428Z,5.00
2018-05-17T01:17:40.420Z,5.20
2018-05-17T01:18:40.415Z,5.20
2018-05-17T01:19:40.407Z,5.40
2018-05-17T01:20:40.400Z,4.80
2018-05-17T01:21:40.417Z,4.90
2018-05-17T01:22:40.383Z,4.60
2018-05-17T01:23:40.382Z,5.00
2018-05-17T01:24:40.369Z,5.70
2018-05-17T01:25:40.375Z,4.80
2018-05-17T01:26:40.357Z,4.90
2018-05-17T01:27:40.345Z,5.70
2018-05-17T01:28:40.335Z,5.70
2018-05-17T01:29:40.327Z,5.80
2018-05-17T01:30:40.325Z,5.50
2018-05-17T01:31:40.319Z,5.00
2018-05-17T01:32:40.307Z,5.10
2018-05-17T01:33:40.301Z,5.70
2018-05-17T01:34:40.293Z,5.40
2018-05-17T01:35:40.286Z,5.00
2018-05-17T01:36:40.279Z,5.30
2018-05-17T01:37:40.273Z,5.40
2018-05-17T01:38:40.266Z,5.10
2018-05-17T01:39:40.257Z,6.00
2018-05-17T01:40:40.253Z,5.70
2018-05-17T01:41:40.240Z,5.50
2018-05-17T01:42:40.232Z,5.70
2018-05-17T01:43:40.229Z,5.90
2018-05-17T01:44:40.221Z,5.60
2018-05-17T01:45:40.215Z,6.10
2018-05-17T01:46:40.206Z,6.70
2018-05-17T01:47:40.201Z,5.40
2018-05-17T01:48:40.191Z,5.30
2018-05-17T01:49:40.182Z,4.70
2018-05-17T01:50:40.175Z,5.80
2018-05-17T01:51:40.172Z,5.30
2018-05-17T01:52:40.166Z,5.30
2018-05-17T01:53:40.217Z,5.30
2018-05-17T01:54:40.145Z,5.50
2018-05-17T01:55:40.137Z,5.70
2018-05-17T01:56:40.132Z,6.00
2018-05-17T01:57:40.122Z,5.20
2018-05-17T01:58:40.119Z,5.80
2018-05-17T01:59:40.110Z,5.80
2018-05-17T02:00:40.106Z,5.40
2018-05-17T02:01:40.091Z,6.10
2018-05-17T02:02:40.085Z,6.00
2018-05-17T02:03:40.085Z,6.40
2018-05-17T02:04:40.076Z,5.70
2018-05-17T02:05:40.066Z,5.60
2018-05-17T02:06:40.060Z,6.20
2018-05-17T02:07:40.053Z,6.60
2018-05-17T02:08:40.041Z,5.50
2018-05-17T02:09:40.034Z,5.80
2018-05-17T02:10:40.031Z,6.00
2018-05-17T02:11:40.024Z,6.90
2018-05-17T02:12:40.016Z,6.20
2018-05-17T02:13:40.006Z,5.80
2018-05-17T02:14:39.999Z,6.60
2018-05-17T02:15:39.987Z,6.10
2018-05-17T02:16:39.983Z,6.40
2018-05-17T02:17:39.978Z,5.60
2018-05-17T02:18:39.971Z,6.20
2018-05-17T02:19:39.964Z,7.20
2018-05-17T02:20:39.957Z,5.90
2018-05-17T02:21:39.945Z,6.00
2018-05-17T02:22:39.937Z,6.60
2018-05-17T02:23:39.931Z,5.90
2018-05-17T02:24:39.925Z,5.90
2018-05-17T02:25:39.919Z,6.20
2018-05-17T02:26:39.912Z,6.20
2018-05-17T02:27:39.904Z,6.20
2018-05-17T02:28:39.896Z,6.50
2018-05-17T02:29:39.893Z,6.30
2018-05-17T02:30:39.883Z,5.50
2018-05-17T02:31:39.874Z,6.60
2018-05-17T02:32:39.894Z,6.00
2018-05-17T02:33:39.858Z,6.00
2018-05-17T02:34:39.853Z,5.80
2018-05-17T02:35:39.850Z,5.40
2018-05-17T02:36:39.845Z,6.40
2018-05-17T02:37:39.859Z,6.10
2018-05-17T02:38:39.820Z,5.60
2018-05-17T02:39:39.821Z,6.10
2018-05-17T02:40:39.807Z,5.60
2018-05-17T02:41:39.799Z,6.20
2018-05-17T02:42:39.795Z,6.50
2018-05-17T02:43:39.782Z,6.00
2018-05-17T02:44:39.775Z,6.70
2018-05-17T02:45:39.781Z,6.10
2018-05-17T02:46:39.759Z,6.40
2018-05-17T02:47:39.760Z,5.90
2018-05-17T02:48:39.748Z,6.50
2018-05-17T02:49:39.741Z,5.90
2018-05-17T02:50:39.736Z,5.40
2018-05-17T02:51:39.726Z,5.80
2018-05-17T02:52:39.728Z,5.40
2018-05-17T02:53:39.707Z,5.90
2018-05-17T02:54:39.703Z,6.10
2018-05-17T02:55:39.703Z,5.90
2018-05-17T02:56:39.703Z,5.30
2018-05-17T02:57:39.676Z,5.90
2018-05-17T02:58:39.670Z,5.70
2018-05-17T02:59:39.673Z,5.60
2018-05-17T03:00:39.660Z,5.60
2018-05-17T03:01:39.653Z,5.70
2018-05-17T03:02:39.639Z,6.20
2018-05-17T03:03:39.634Z,6.20
2018-05-17T03:04:39.626Z,5.20
2018-05-17T03:05:39.616Z,5.80
2018-05-17T03:06:39.611Z,5.40
2018-05-17T03:07:39.607Z,5.50
2018-05-17T03:08:39.597Z,5.70
2018-05-17T03:09:39.589Z,5.50
2018-05-17T03:10:39.584Z,5.40
2018-05-17T03:11:39.570Z,5.40
2018-05-17T03:12:39.565Z,5.50
2018-05-17T03:13:39.556Z,6.00
2018-05-17T03:14:39.552Z,5.80
2018-05-17T03:15:39.545Z,5.70
2018-05-17T03:16:39.538Z,6.10
2018-05-17T03:17:39.529Z,6.50
2018-05-17T03:18:39.519Z,6.30
2018-05-17T03:19:39.514Z,5.90
2018-05-17T03:20:39.511Z,5.80
2018-05-17T03:21:39.504Z,5.60
2018-05-17T03:22:39.492Z,6.30
2018-05-17T03:23:39.483Z,5.50
2018-05-17T03:24:39.478Z,5.60
2018-05-17T03:25:39.468Z,6.30
2018-05-17T03:26:39.462Z,5.30
2018-05-17T03:27:39.452Z,5.90
2018-05-17T03:28:39.448Z,5.60
2018-05-17T03:29:39.441Z,5.50
2018-05-17T03:30:39.434Z,5.40
2018-05-17T03:31:39.422Z,5.90
2018-05-17T03:32:39.412Z,5.90
2018-05-17T03:33:39.402Z,6.00
2018-05-17T03:34:39.406Z,5.50
2018-05-17T03:35:39.392Z,5.20
2018-05-17T03:36:39.385Z,5.80
2018-05-17T03:37:39.378Z,5.80
2018-05-17T03:38:39.370Z,5.80
2018-05-17T03:39:39.358Z,5.20
2018-05-17T03:40:39.355Z,5.20
2018-05-17T03:41:39.346Z,5.60
2018-05-17T03:42:39.337Z,6.30
2018-05-17T03:43:39.332Z,5.50
2018-05-17T03:44:39.321Z,5.70
2018-05-17T03:45:39.313Z,5.70
2018-05-17T03:46:39.306Z,5.70
2018-05-17T03:47:39.301Z,5.80
2018-05-17T03:48:39.288Z,6.10
2018-05-17T03:49:39.282Z,5.20
2018-05-17T03:50:39.277Z,5.10
2018-05-17T03:51:39.269Z,5.90
2018-05-17T03:52:39.260Z,6.40
2018-05-17T03:53:39.252Z,5.80
2018-05-17T03:54:39.240Z,5.80
2018-05-17T03:55:39.238Z,6.10
2018-05-17T03:56:39.226Z,5.80
2018-05-17T03:57:39.221Z,5.80
2018-05-17T03:58:39.217Z,6.90
2018-05-17T03:59:39.207Z,6.80
2018-05-17T04:00:39.200Z,6.60
2018-05-17T04:01:39.196Z,6.00
2018-05-17T04:02:39.181Z,6.70
2018-05-17T04:03:39.174Z,6.90
2018-05-17T04:04:39.167Z,6.50
2018-05-17T04:05:39.161Z,6.90
2018-05-17T04:06:39.153Z,6.70
2018-05-17T04:07:39.146Z,6.90
2018-05-17T04:08:39.161Z,6.60
2018-05-17T04:09:39.126Z,6.60
2018-05-17T04:10:39.124Z,6.70
2018-05-17T04:11:39.116Z,6.80
2018-05-17T04:12:39.108Z,6.70
2018-05-17T04:13:39.098Z,7.30
2018-05-17T04:14:39.096Z,7.10
2018-05-17T04:15:39.079Z,7.70
2018-05-17T04:16:39.074Z,7.60
2018-05-17T04:17:39.069Z,6.80
2018-05-17T04:18:39.071Z,6.90
2018-05-17T04:19:39.060Z,7.80
2018-05-17T04:20:39.048Z,7.20
2018-05-17T04:21:39.037Z,7.50
2018-05-17T04:22:39.027Z,7.50
2018-05-17T04:23:39.022Z,7.20
2018-05-17T04:24:39.014Z,7.00
2018-05-17T04:25:39.005Z,6.50
2018-05-17T04:26:39.000Z,7.00
2018-05-17T04:27:38.992Z,7.10
2018-05-17T04:28:38.984Z,6.90
2018-05-17T04:29:38.973Z,6.60
2018-05-17T04:30:38.967Z,7.00
2018-05-17T04:31:38.959Z,7.10
2018-05-17T04:32:38.956Z,6.80
2018-05-17T04:33:38.946Z,6.90
2018-05-17T04:34:38.940Z,7.40
2018-05-17T04:35:38.934Z,7.80
2018-05-17T04:36:38.927Z,6.70
2018-05-17T04:37:38.913Z,7.70
2018-05-17T04:38:38.905Z,7.60
2018-05-17T04:39:38.905Z,7.10
2018-05-17T04:40:38.895Z,6.80
2018-05-17T04:41:38.887Z,7.90
2018-05-17T04:42:38.878Z,7.70
2018-05-17T04:43:38.872Z,7.30
2018-05-17T04:44:38.862Z,7.10
2018-05-17T04:45:38.860Z,7.10
2018-05-17T04:46:38.849Z,7.70
2018-05-17T04:47:38.839Z,7.80
2018-05-17T04:48:38.835Z,7.00
2018-05-17T04:49:38.828Z,7.70
2018-05-17T04:50:38.862Z,7.00
2018-05-17T04:51:38.808Z,7.10
2018-05-17T04:52:38.802Z,7.60
2018-05-17T04:53:38.798Z,7.30
2018-05-17T04:54:38.847Z,7.50
2018-05-17T04:55:38.777Z,6.90
2018-05-17T04:56:38.773Z,6.70
2018-05-17T04:57:38.764Z,7.00
2018-05-17T04:58:38.758Z,6.20
2018-05-17T04:59:38.751Z,7.00
2018-05-17T05:00:38.744Z,6.80
2018-05-17T05:01:38.737Z,7.70
2018-05-17T05:02:38.745Z,6.70
2018-05-17T05:03:38.722Z,7.00
2018-05-17T05:04:38.711Z,6.90
2018-05-17T05:05:38.713Z,8.20
2018-05-17T05:06:38.695Z,6.40
2018-05-17T05:07:38.693Z,7.50
2018-05-17T05:08:38.686Z,7.90
2018-05-17T05:09:38.677Z,6.60
2018-05-17T05:10:38.670Z,6.90
2018-05-17T05:11:38.662Z,7.70
2018-05-17T05:12:38.658Z,6.60
2018-05-17T05:13:38.645Z,7.70
2018-05-17T05:14:38.640Z,7.60
2018-05-17T05:15:38.632Z,7.40
2018-05-17T05:16:38.635Z,7.60
2018-05-17T05:17:38.617Z,7.40
2018-05-17T05:18:38.608Z,6.90
2018-05-17T05:19:38.603Z,7.90
2018-05-17T05:20:38.595Z,7.70
2018-05-17T05:21:38.589Z,7.00
2018-05-17T05:22:38.584Z,7.10
2018-05-17T05:23:38.575Z,7.40
2018-05-17T05:24:38.568Z,7.50
2018-05-17T05:25:38.559Z,7.70
2018-05-17T05:26:38.549Z,8.30
2018-05-17T05:27:38.542Z,8.50
2018-05-17T05:28:38.540Z,7.70
2018-05-17T05:29:38.529Z,8.10
2018-05-17T05:30:38.529Z,8.40
2018-05-17T05:31:38.525Z,8.90
2018-05-17T05:32:38.505Z,9.10
2018-05-17T05:33:38.500Z,9.30
2018-05-17T05:34:38.495Z,8.40
2018-05-17T05:35:38.487Z,8.50
2018-05-17T05:36:38.482Z,8.90
2018-05-17T05:37:38.480Z,8.70
2018-05-17T05:38:38.475Z,9.30
2018-05-17T05:39:38.456Z,7.70
2018-05-17T05:40:38.460Z,7.90
2018-05-17T05:41:38.443Z,8.10
2018-05-17T05:42:38.445Z,9.00
2018-05-17T05:43:38.431Z,8.20
2018-05-17T05:44:38.424Z,7.80
2018-05-17T05:45:38.416Z,8.20
2018-05-17T05:46:38.406Z,7.70
2018-05-17T05:47:38.403Z,8.10
2018-05-17T05:48:38.395Z,7.60
2018-05-17T05:49:38.453Z,7.30
2018-05-17T05:50:38.381Z,7.70
2018-05-17T05:51:38.381Z,8.20
2018-05-17T05:52:38.369Z,8.20
2018-05-17T05:53:38.363Z,7.90
2018-05-17T05:54:38.351Z,7.50
2018-05-17T05:55:38.356Z,7.50
2018-05-17T05:56:38.343Z,7.60
2018-05-17T05:57:38.328Z,8.20
2018-05-17T05:58:38.326Z,7.40
2018-05-17T05:59:38.319Z,7.40
2018-05-17T06:00:38.311Z,7.60
2018-05-17T06:01:38.299Z,8.10
2018-05-17T06:02:38.298Z,7.60
2018-05-17T06:03:38.293Z,7.20
2018-05-17T06:04:38.285Z,7.50
2018-05-17T06:05:38.307Z,6.80
2018-05-17T06:06:38.265Z,6.80
2018-05-17T06:07:38.262Z,6.60
2018-05-17T06:08:38.252Z,6.90
2018-05-17T06:09:38.250Z,6.70
2018-05-17T06:10:38.244Z,6.90
2018-05-17T06:11:38.237Z,6.60
2018-05-17T06:12:38.228Z,5.60
2018-05-17T06:13:38.220Z,6.00
2018-05-17T06:14:38.212Z,6.10
2018-05-17T06:15:38.205Z,5.80
2018-05-17T06:16:38.203Z,5.90
2018-05-17T06:17:38.196Z,6.20
2018-05-17T06:18:38.188Z,6.40
2018-05-17T06:19:38.181Z,5.70
2018-05-17T06:20:38.171Z,5.90
2018-05-17T06:21:38.164Z,6.40
2018-05-17T06:22:38.158Z,5.80
2018-05-17T06:23:38.155Z,5.70
2018-05-17T06:24:38.147Z,6.10
2018-05-17T06:25:38.143Z,5.10
2018-05-17T06:26:38.134Z,5.40
2018-05-17T06:27:38.123Z,4.90
2018-05-17T06:28:38.123Z,5.90
2018-05-17T06:29:38.111Z,5.40
2018-05-17T06:30:38.102Z,6.90
2018-05-17T06:31:38.099Z,5.90
2018-05-17T06:32:38.093Z,5.50
2018-05-17T06:33:38.084Z,5.50
2018-05-17T06:34:38.104Z,5.90
2018-05-17T06:35:38.070Z,5.80
2018-05-17T06:36:38.063Z,5.50
2018-05-17T06:37:38.075Z,5.50
2018-05-17T06:38:38.052Z,5.80
2018-05-17T06:39:38.049Z,5.60
2018-05-17T06:40:38.041Z,5.90
2018-05-17T06:41:38.031Z,5.70
2018-05-17T06:42:38.020Z,5.30
2018-05-17T06:43:38.019Z,6.40
2018-05-17T06:44:38.010Z,5.80
2018-05-17T06:45:38.007Z,5.00
2018-05-17T06:46:38.000Z,5.60
2018-05-17T06:47:37.995Z,5.40
2018-05-17T06:48:37.991Z,5.50
2018-05-17T06:49:37.975Z,6.10
2018-05-17T06:50:37.970Z,5.30
2018-05-17T06:51:37.964Z,6.00
2018-05-17T06:52:37.958Z,5.60
2018-05-17T06:53:37.954Z,5.80
2018-05-17T06:54:37.955Z,5.60
2018-05-17T06:55:37.947Z,5.20
2018-05-17T06:56:37.932Z,5.70
2018-05-17T06:57:37.927Z,5.50
2018-05-17T06:58:37.920Z,5.70
2018-05-17T06:59:37.916Z,6.80
2018-05-17T07:00:37.997Z,6.10
2018-05-17T07:01:37.909Z,5.60
2018-05-17T07:02:37.899Z,5.80
2018-05-17T07:03:37.891Z,5.20
2018-05-17T07:04:37.883Z,5.50
2018-05-17T07:05:37.876Z,5.60
2018-05-17T07:06:37.874Z,4.90
2018-05-17T07:07:37.869Z,5.70
2018-05-17T07:08:37.861Z,5.30
2018-05-17T07:09:37.856Z,5.10
2018-05-17T07:10:37.853Z,5.10
2018-05-17T07:11:37.844Z,4.90
2018-05-17T07:12:37.862Z,5.80
2018-05-17T07:13:37.844Z,5.50
2018-05-17T07:14:37.825Z,5.30
2018-05-17T07:15:37.823Z,5.00
2018-05-17T07:16:37.816Z,5.30
2018-05-17T07:17:37.805Z,5.20
2018-05-17T07:18:38.359Z,4.70
2018-05-17T07:19:37.796Z,4.70
2018-05-17T07:20:37.792Z,4.80
2018-05-17T07:21:37.791Z,5.10
2018-05-17T07:22:37.793Z,5.60
2018-05-17T07:23:37.774Z,4.70
2018-05-17T07:24:37.770Z,4.80
2018-05-17T07:25:37.761Z,5.00
2018-05-17T07:26:37.774Z,4.80
2018-05-17T07:27:37.759Z,5.60
2018-05-17T07:28:37.753Z,5.30
2018-05-17T07:29:37.758Z,5.10
2018-05-17T07:30:37.735Z,4.50
2018-05-17T07:31:37.730Z,5.00
2018-05-17T07:32:37.726Z,4.70
2018-05-17T07:33:37.718Z,5.20
2018-05-17T07:34:37.716Z,5.20
2018-05-17T07:35:37.718Z,4.60
2018-05-17T07:36:37.705Z,5.30
2018-05-17T07:37:37.706Z,5.10
2018-05-17T07:38:37.691Z,5.40
2018-05-17T07:39:37.701Z,5.30
2018-05-17T07:40:37.689Z,4.80
2018-05-17T07:41:37.679Z,5.50
2018-05-17T07:42:37.673Z,4.90
2018-05-17T07:43:37.670Z,5.50
2018-05-17T07:44:37.659Z,5.50
2018-05-17T07:45:37.657Z,4.90
2018-05-17T07:46:37.689Z,4.90
2018-05-17T07:47:37.642Z,5.50
2018-05-17T07:48:37.640Z,4.80
2018-05-17T07:49:37.637Z,5.30
2018-05-17T07:50:37.633Z,5.90
2018-05-17T07:51:37.621Z,5.80
2018-05-17T07:52:37.623Z,5.20
2018-05-17T07:53:37.614Z,5.00
2018-05-17T07:54:37.611Z,5.20
2018-05-17T07:55:37.705Z,4.80
2018-05-17T07:56:37.607Z,5.10
2018-05-17T07:57:37.603Z,5.00
2018-05-17T07:58:37.599Z,4.20
2018-05-17T07:59:37.613Z,4.70
2018-05-17T08:00:37.705Z,5.20
2018-05-17T08:01:37.591Z,5.20
2018-05-17T08:02:37.594Z,4.90
2018-05-17T08:03:37.590Z,4.40
2018-05-17T08:04:37.585Z,4.60
2018-05-17T08:05:37.581Z,5.10
2018-05-17T08:06:37.576Z,5.30
2018-05-17T08:07:37.573Z,4.80
2018-05-17T08:08:37.571Z,5.00
2018-05-17T08:09:37.571Z,4.90
2018-05-17T08:10:37.568Z,5.30
2018-05-17T08:11:37.564Z,4.80
2018-05-17T08:12:37.565Z,5.30
2018-05-17T08:13:37.562Z,5.20
2018-05-17T08:14:37.552Z,5.00
2018-05-17T08:15:37.550Z,4.30
2018-05-17T08:16:37.549Z,5.30
2018-05-17T08:17:37.544Z,4.80
2018-05-17T08:18:37.543Z,5.10
2018-05-17T08:19:37.536Z,4.40
2018-05-17T08:20:37.535Z,4.80
2018-05-17T08:21:37.532Z,4.90
2018-05-17T08:22:37.530Z,5.50
2018-05-17T08:23:37.529Z,4.70
2018-05-17T08:24:37.526Z,4.90
2018-05-17T08:25:37.524Z,5.30
2018-05-17T08:26:37.520Z,5.10
2018-05-17T08:27:37.521Z,5.10
2018-05-17T08:28:37.516Z,4.50
2018-05-17T08:29:37.531Z,4.40
2018-05-17T08:30:37.517Z,4.90
2018-05-17T08:31:37.519Z,4.60
2018-05-17T08:32:37.518Z,5.10
2018-05-17T08:33:37.516Z,5.80
2018-05-17T08:34:37.519Z,4.80
2018-05-17T08:35:37.513Z,5.10
2018-05-17T08:36:37.645Z,5.00
2018-05-17T08:37:37.524Z,5.20
2018-05-17T08:38:37.517Z,4.90
2018-05-17T08:39:37.523Z,4.70
2018-05-17T08:40:37.518Z,5.10
2018-05-17T08:41:37.524Z,4.90
2018-05-17T08:42:37.538Z,4.70
2018-05-17T08:43:37.527Z,4.80
2018-05-17T08:44:37.530Z,5.00
2018-05-17T08:45:37.607Z,4.50
2018-05-17T08:46:37.535Z,5.40
2018-05-17T08:47:37.533Z,5.20
2018-05-17T08:48:37.540Z,5.20
2018-05-17T08:49:37.539Z,4.90
2018-05-17T08:50:37.543Z,5.40
2018-05-17T08:51:37.552Z,5.10
2018-05-17T08:52:37.549Z,5.20
2018-05-17T08:53:37.556Z,5.00
2018-05-17T08:54:37.551Z,5.10
2018-05-17T08:55:37.557Z,4.80
2018-05-17T08:56:37.557Z,4.70
2018-05-17T08:57:37.737Z,4.70
2018-05-17T08:58:37.564Z,5.30
2018-05-17T08:59:37.629Z,5.00
2018-05-17T09:00:37.565Z,5.00
2018-05-17T09:01:37.564Z,5.00
2018-05-17T09:02:37.565Z,4.80
2018-05-17T09:03:37.570Z,5.70
2018-05-17T09:04:37.569Z,5.30
2018-05-17T09:05:37.575Z,5.10
2018-05-17T09:06:37.572Z,4.90
2018-05-17T09:07:37.576Z,5.00
2018-05-17T09:08:37.579Z,5.20
2018-05-17T09:09:37.611Z,4.80
2018-05-17T09:10:37.585Z,5.50
2018-05-17T09:11:37.591Z,4.80
2018-05-17T09:12:37.594Z,5.00
2018-05-17T09:13:37.696Z,4.90
2018-05-17T09:14:37.600Z,5.10
2018-05-17T09:15:37.610Z,5.10
2018-05-17T09:16:37.608Z,5.00
2018-05-17T09:17:37.618Z,5.20
2018-05-17T09:18:37.619Z,5.10
2018-05-17T09:19:37.633Z,5.30
2018-05-17T09:20:37.633Z,4.90
2018-05-17T09:21:37.633Z,4.90
2018-05-17T09:22:37.637Z,4.70
2018-05-17T09:23:37.643Z,4.80
2018-05-17T09:24:37.648Z,5.40
2018-05-17T09:25:37.655Z,4.80
2018-05-17T09:26:37.661Z,5.80
2018-05-17T09:27:37.666Z,5.10
2018-05-17T09:28:37.669Z,5.40
2018-05-17T09:29:37.672Z,5.80
2018-05-17T09:30:37.681Z,5.30
2018-05-17T09:31:37.682Z,5.30
2018-05-17T09:32:37.691Z,5.20
2018-05-17T09:33:37.700Z,5.10
2018-05-17T09:34:37.697Z,5.30
2018-05-17T09:35:37.721Z,5.50
2018-05-17T09:36:37.703Z,4.80
2018-05-17T09:37:37.707Z,5.60
2018-05-17T09:38:37.718Z,5.10
2018-05-17T09:39:37.719Z,5.50
2018-05-17T09:40:37.720Z,5.60
2018-05-17T09:41:37.724Z,5.30
2018-05-17T09:42:37.726Z,5.30
2018-05-17T09:43:37.753Z,5.30
2018-05-17T09:44:37.732Z,5.30
2018-05-17T09:45:37.739Z,6.00
2018-05-17T09:46:37.745Z,5.10
2018-05-17T09:47:37.818Z,5.50
2018-05-17T09:48:37.755Z,5.30
2018-05-17T09:49:37.757Z,5.00
2018-05-17T09:50:37.786Z,5.70
2018-05-17T09:51:37.765Z,5.10
2018-05-17T09:52:37.843Z,4.80
2018-05-17T09:53:37.786Z,5.10
2018-05-17T09:54:37.784Z,4.60
2018-05-17T09:55:37.809Z,5.00
2018-05-17T09:56:37.791Z,4.70
2018-05-17T09:57:37.795Z,4.50
2018-05-17T09:58:37.803Z,4.40
2018-05-17T09:59:37.811Z,4.70
2018-05-17T10:00:37.822Z,4.50
2018-05-17T10:01:37.824Z,4.70
2018-05-17T10:02:37.831Z,4.30
2018-05-17T10:03:37.838Z,4.90
2018-05-17T10:04:37.849Z,4.50
2018-05-17T10:05:37.845Z,4.90
2018-05-17T10:06:37.862Z,5.20
2018-05-17T10:07:37.873Z,5.00
2018-05-17T10:08:37.877Z,5.30
2018-05-17T10:09:37.873Z,4.40
2018-05-17T10:10:37.877Z,5.70
2018-05-17T10:11:37.887Z,4.90
2018-05-17T10:12:37.893Z,4.80
2018-05-17T10:13:37.906Z,4.80
2018-05-17T10:14:37.967Z,5.30
2018-05-17T10:15:37.937Z,5.20
2018-05-17T10:16:37.920Z,5.00
2018-05-17T10:17:37.932Z,5.00
2018-05-17T10:18:37.940Z,5.40
2018-05-17T10:19:37.949Z,5.60
2018-05-17T10:20:37.965Z,5.10
2018-05-17T10:21:37.962Z,5.00
2018-05-17T10:22:37.971Z,4.90
2018-05-17T10:23:37.972Z,5.10
2018-05-17T10:24:37.979Z,5.30
2018-05-17T10:25:37.987Z,5.30
2018-05-17T10:26:37.997Z,5.10
2018-05-17T10:27:38.006Z,5.40
2018-05-17T10:28:38.014Z,5.10
2018-05-17T10:29:38.023Z,5.30
2018-05-17T10:30:38.030Z,5.30
2018-05-17T10:31:38.032Z,5.50
2018-05-17T10:32:38.041Z,5.30
2018-05-17T10:33:38.047Z,5.40
2018-05-17T10:34:38.059Z,4.90
2018-05-17T10:35:38.067Z,4.80
2018-05-17T10:36:38.083Z,4.90
2018-05-17T10:37:38.083Z,4.40
2018-05-17T10:38:38.090Z,5.30
2018-05-17T10:39:38.100Z,4.60
2018-05-17T10:40:38.113Z,4.90
2018-05-17T10:41:38.111Z,5.40
2018-05-17T10:42:38.120Z,5.00
2018-05-17T10:43:38.130Z,5.40
2018-05-17T10:44:38.135Z,4.80
2018-05-17T10:45:38.144Z,5.30
2018-05-17T10:46:38.657Z,4.90
2018-05-17T10:47:38.160Z,4.80
2018-05-17T10:48:38.176Z,4.90
2018-05-17T10:49:38.179Z,5.00
2018-05-17T10:50:38.191Z,5.30
2018-05-17T10:51:38.197Z,5.80
2018-05-17T10:52:38.210Z,5.20
2018-05-17T10:53:38.210Z,5.10
2018-05-17T10:54:38.326Z,5.10
2018-05-17T10:55:38.229Z,5.20
2018-05-17T10:56:38.239Z,5.30
2018-05-17T10:57:38.246Z,5.20
2018-05-17T10:58:38.262Z,5.00
2018-05-17T10:59:38.262Z,5.90
2018-05-17T11:00:38.267Z,5.20
2018-05-17T11:01:38.275Z,5.00
2018-05-17T11:02:38.345Z,5.00
2018-05-17T11:03:38.298Z,5.30
2018-05-17T11:04:38.307Z,5.00
2018-05-17T11:05:38.309Z,4.90
2018-05-17T11:06:38.327Z,5.10
2018-05-17T11:07:38.332Z,4.60
2018-05-17T11:08:38.337Z,5.10
2018-05-17T11:09:38.348Z,5.20
2018-05-17T11:10:38.357Z,8.20
2018-05-17T11:11:38.365Z,5.60
2018-05-17T11:12:38.460Z,5.60
2018-05-17T11:13:38.378Z,5.00
2018-05-17T11:14:38.388Z,5.30
2018-05-17T11:15:38.397Z,5.00
2018-05-17T11:16:38.403Z,5.50
2018-05-17T11:17:38.417Z,4.70
2018-05-17T11:18:38.422Z,4.90
2018-05-17T11:19:38.430Z,5.30
2018-05-17T11:20:38.437Z,4.90
2018-05-17T11:21:38.444Z,4.90
2018-05-17T11:22:38.458Z,5.40
2018-05-17T11:23:38.465Z,5.30
2018-05-17T11:24:38.472Z,4.90
2018-05-17T11:25:38.486Z,5.00
2018-05-17T11:26:38.492Z,4.80
2018-05-17T11:27:38.495Z,5.20
2018-05-17T11:28:38.504Z,5.20
2018-05-17T11:29:38.519Z,5.20
2018-05-17T11:30:38.526Z,4.80
2018-05-17T11:31:38.532Z,4.70
2018-05-17T11:32:38.544Z,4.60
2018-05-17T11:33:38.550Z,5.40
2018-05-17T11:34:38.559Z,4.80
2018-05-17T11:35:38.568Z,4.70
2018-05-17T11:36:38.574Z,4.90
2018-05-17T11:37:38.584Z,4.60
2018-05-17T11:38:38.610Z,5.10
2018-05-17T11:39:38.607Z,5.10
2018-05-17T11:40:38.614Z,4.90
2018-05-17T11:41:38.615Z,5.40
2018-05-17T11:42:38.626Z,5.20
2018-05-17T11:43:38.632Z,4.80
2018-05-17T11:44:38.644Z,4.90
2018-05-17T11:45:38.656Z,4.70
2018-05-17T11:46:38.663Z,5.30
2018-05-17T11:47:38.667Z,4.60
2018-05-17T11:48:38.677Z,5.30
2018-05-17T11:49:38.684Z,5.30
2018-05-17T11:50:38.694Z,5.70
2018-05-17T11:51:38.705Z,4.90
2018-05-17T11:52:38.713Z,5.60
2018-05-17T11:53:38.722Z,5.20
2018-05-17T11:54:38.725Z,5.30
2018-05-17T11:55:38.734Z,5.80
2018-05-17T11:56:38.744Z,4.90
2018-05-17T11:57:38.756Z,5.20
2018-05-17T11:58:38.765Z,4.80
2018-05-17T11:59:38.775Z,5.00
2018-05-17T12:00:38.779Z,4.80
2018-05-17T12:01:38.796Z,5.00
2018-05-17T12:02:38.835Z,5.20
2018-05-17T12:03:38.800Z,5.00
2018-05-17T12:04:38.808Z,5.10
2018-05-17T12:05:38.819Z,5.20
2018-05-17T12:06:38.829Z,4.80
2018-05-17T12:07:38.902Z,5.20
2018-05-17T12:08:38.875Z,4.70
2018-05-17T12:09:38.871Z,5.70
2018-05-17T12:10:38.858Z,5.00
2018-05-17T12:11:38.870Z,5.00
2018-05-17T12:12:38.873Z,5.00
2018-05-17T12:13:38.881Z,4.70
2018-05-17T12:14:38.892Z,5.00
2018-05-17T12:15:38.901Z,4.90
2018-05-17T12:16:38.908Z,4.90
2018-05-17T12:17:38.918Z,4.90
2018-05-17T12:18:38.920Z,4.80
2018-05-17T12:19:38.935Z,4.90
2018-05-17T12:20:38.945Z,4.80
2018-05-17T12:21:38.951Z,4.60
2018-05-17T12:22:38.954Z,5.20
2018-05-17T12:23:38.960Z,4.90
2018-05-17T12:24:38.975Z,4.90
2018-05-17T12:25:38.978Z,5.50
2018-05-17T12:26:38.992Z,5.30
2018-05-17T12:27:38.995Z,4.80
2018-05-17T12:28:39.002Z,4.60
2018-05-17T12:29:39.011Z,5.00
2018-05-17T12:30:39.016Z,5.30
2018-05-17T12:31:39.106Z,5.40
2018-05-17T12:32:39.037Z,5.00
2018-05-17T12:33:39.098Z,4.90
2018-05-17T12:34:39.048Z,5.40
2018-05-17T12:35:39.091Z,4.50
2018-05-17T12:36:39.065Z,5.60
2018-05-17T12:37:39.070Z,5.70
2018-05-17T12:38:39.077Z,7.70
2018-05-17T12:39:39.091Z,6.20
2018-05-17T12:40:39.101Z,5.90
2018-05-17T12:41:39.102Z,5.30
2018-05-17T12:42:39.106Z,5.60
2018-05-17T12:43:39.123Z,5.50
2018-05-17T12:44:39.125Z,5.70
2018-05-17T12:45:39.129Z,5.50
2018-05-17T12:46:39.141Z,5.50
2018-05-17T12:47:39.155Z,5.40
2018-05-17T12:48:39.155Z,5.00
2018-05-17T12:49:39.159Z,5.20
2018-05-17T12:50:39.172Z,5.40
2018-05-17T12:51:39.304Z,5.70
2018-05-17T12:52:39.179Z,5.50
2018-05-17T12:53:39.186Z,5.20
2018-05-17T12:54:39.202Z,5.20
2018-05-17T12:55:39.206Z,6.10
2018-05-17T12:56:39.215Z,5.70
2018-05-17T12:57:39.217Z,5.00
2018-05-17T12:58:39.318Z,5.50
2018-05-17T12:59:39.236Z,5.40
2018-05-17T13:00:39.239Z,4.70
2018-05-17T13:01:39.247Z,4.10
2018-05-17T13:02:39.253Z,4.80
2018-05-17T13:03:39.262Z,4.60
2018-05-17T13:04:39.264Z,5.30
2018-05-17T13:05:39.275Z,5.20
2018-05-17T13:06:39.280Z,5.00
2018-05-17T13:07:39.287Z,4.90
2018-05-17T13:08:39.294Z,5.40
2018-05-17T13:09:39.298Z,4.80
2018-05-17T13:10:39.305Z,5.20
2018-05-17T13:11:39.309Z,5.10
2018-05-17T13:12:39.318Z,5.50
2018-05-17T13:13:39.327Z,4.60
2018-05-17T13:14:39.332Z,5.10
2018-05-17T13:15:39.341Z,4.80
2018-05-17T13:16:39.346Z,5.10
2018-05-17T13:17:39.351Z,4.70
2018-05-17T13:18:39.353Z,5.40